sensor_id;sensor_type;location;lat;lon;timestamp;P1;durP1;ratioP1;P2;durP2;ratioP2
16735;SDS011;17990;49.548;9.730;2022-08-06T00:00:20;2.13;;;0.80;;
16735;SDS011;17990;49.548;9.730;2022-08-06T00:02:47;1.30;;;0.80;;
16735;SDS011;17990;49.548;9.730;2022-08-06T00:05:13;2.20;;;0.77;;
16735;SDS011;17990;49.548;9.730;2022-08-06T00:07:42;2.43;;;1.00;;
16735;SDS011;17990;49.548;9.730;2022-08-06T00:10:08;2.30;;;0.90;;
16735;SDS011;17990;49.548;9.730;2022-08-06T00:12:35;1.83;;;0.80;;
16735;SDS011;17990;49.548;9.730;2022-08-06T00:15:02;1.97;;;0.70;;
16735;SDS011;17990;49.548;9.730;2022-08-06T00:17:31;2.77;;;0.90;;
16735;SDS011;17990;49.548;9.730;2022-08-06T00:19:58;1.40;;;0.70;;
16735;SDS011;17990;49.548;9.730;2022-08-06T00:22:26;3.57;;;0.93;;
16735;SDS011;17990;49.548;9.730;2022-08-06T00:24:55;3.67;;;0.90;;
16735;SDS011;17990;49.548;9.730;2022-08-06T00:27:22;2.90;;;1.03;;
16735;SDS011;17990;49.548;9.730;2022-08-06T00:29:49;3.57;;;0.90;;
16735;SDS011;17990;49.548;9.730;2022-08-06T00:32:15;2.13;;;0.90;;
16735;SDS011;17990;49.548;9.730;2022-08-06T00:34:42;4.23;;;0.80;;
16735;SDS011;17990;49.548;9.730;2022-08-06T00:37:09;3.57;;;1.00;;
16735;SDS011;17990;49.548;9.730;2022-08-06T00:39:36;2.20;;;0.97;;
16735;SDS011;17990;49.548;9.730;2022-08-06T00:42:05;1.63;;;0.80;;
16735;SDS011;17990;49.548;9.730;2022-08-06T00:44:32;1.90;;;0.80;;
16735;SDS011;17990;49.548;9.730;2022-08-06T00:46:59;3.13;;;0.90;;
16735;SDS011;17990;49.548;9.730;2022-08-06T00:49:26;2.33;;;0.87;;
16735;SDS011;17990;49.548;9.730;2022-08-06T00:51:54;3.03;;;0.60;;
16735;SDS011;17990;49.548;9.730;2022-08-06T00:54:21;3.17;;;0.90;;
16735;SDS011;17990;49.548;9.730;2022-08-06T00:56:48;1.37;;;0.90;;
16735;SDS011;17990;49.548;9.730;2022-08-06T00:59:17;2.33;;;0.93;;
16735;SDS011;17990;49.548;9.730;2022-08-06T01:01:43;2.03;;;0.83;;
16735;SDS011;17990;49.548;9.730;2022-08-06T01:04:10;1.70;;;1.00;;
16735;SDS011;17990;49.548;9.730;2022-08-06T01:06:37;2.03;;;1.00;;
16735;SDS011;17990;49.548;9.730;2022-08-06T01:09:04;3.73;;;1.00;;
16735;SDS011;17990;49.548;9.730;2022-08-06T01:11:31;3.50;;;0.97;;
16735;SDS011;17990;49.548;9.730;2022-08-06T01:13:58;3.20;;;0.80;;
16735;SDS011;17990;49.548;9.730;2022-08-06T01:16:27;4.17;;;0.90;;
16735;SDS011;17990;49.548;9.730;2022-08-06T01:19:01;2.33;;;0.90;;
16735;SDS011;17990;49.548;9.730;2022-08-06T01:21:47;2.73;;;0.97;;
16735;SDS011;17990;49.548;9.730;2022-08-06T01:24:27;1.70;;;1.03;;
16735;SDS011;17990;49.548;9.730;2022-08-06T01:27:18;2.60;;;1.00;;
16735;SDS011;17990;49.548;9.730;2022-08-06T01:29:57;2.57;;;0.87;;
16735;SDS011;17990;49.548;9.730;2022-08-06T01:32:31;4.00;;;0.80;;
16735;SDS011;17990;49.548;9.730;2022-08-06T01:35:03;3.00;;;1.10;;
16735;SDS011;17990;49.548;9.730;2022-08-06T01:37:36;2.60;;;0.80;;
16735;SDS011;17990;49.548;9.730;2022-08-06T01:40:14;2.97;;;0.80;;
16735;SDS011;17990;49.548;9.730;2022-08-06T01:42:49;3.37;;;0.93;;
16735;SDS011;17990;49.548;9.730;2022-08-06T01:45:21;2.27;;;0.70;;
16735;SDS011;17990;49.548;9.730;2022-08-06T01:47:52;2.20;;;0.70;;
16735;SDS011;17990;49.548;9.730;2022-08-06T01:50:25;1.23;;;0.80;;
16735;SDS011;17990;49.548;9.730;2022-08-06T01:52:55;1.73;;;0.90;;
16735;SDS011;17990;49.548;9.730;2022-08-06T01:55:24;5.23;;;1.23;;
16735;SDS011;17990;49.548;9.730;2022-08-06T01:57:57;2.20;;;0.83;;
16735;SDS011;17990;49.548;9.730;2022-08-06T02:00:28;1.97;;;0.80;;
16735;SDS011;17990;49.548;9.730;2022-08-06T02:02:55;2.73;;;1.00;;
16735;SDS011;17990;49.548;9.730;2022-08-06T02:05:29;1.47;;;0.90;;
16735;SDS011;17990;49.548;9.730;2022-08-06T02:07:57;4.47;;;0.90;;
16735;SDS011;17990;49.548;9.730;2022-08-06T02:10:26;4.07;;;1.30;;
16735;SDS011;17990;49.548;9.730;2022-08-06T02:12:57;1.83;;;0.93;;
16735;SDS011;17990;49.548;9.730;2022-08-06T02:15:28;1.70;;;1.00;;
16735;SDS011;17990;49.548;9.730;2022-08-06T02:17:57;3.00;;;0.90;;
16735;SDS011;17990;49.548;9.730;2022-08-06T02:20:28;3.53;;;0.90;;
16735;SDS011;17990;49.548;9.730;2022-08-06T02:22:58;2.03;;;1.27;;
16735;SDS011;17990;49.548;9.730;2022-08-06T02:25:29;2.73;;;0.90;;
16735;SDS011;17990;49.548;9.730;2022-08-06T02:27:59;3.20;;;0.90;;
16735;SDS011;17990;49.548;9.730;2022-08-06T02:30:30;4.77;;;1.20;;
16735;SDS011;17990;49.548;9.730;2022-08-06T02:33:00;4.13;;;1.00;;
16735;SDS011;17990;49.548;9.730;2022-08-06T02:35:27;4.03;;;0.97;;
16735;SDS011;17990;49.548;9.730;2022-08-06T02:40:46;2.47;;;1.37;;
16735;SDS011;17990;49.548;9.730;2022-08-06T02:43:22;3.13;;;1.13;;
16735;SDS011;17990;49.548;9.730;2022-08-06T02:46:01;3.93;;;1.20;;
16735;SDS011;17990;49.548;9.730;2022-08-06T02:48:39;3.27;;;1.00;;
16735;SDS011;17990;49.548;9.730;2022-08-06T02:51:13;2.53;;;1.10;;
16735;SDS011;17990;49.548;9.730;2022-08-06T02:53:48;2.23;;;1.00;;
16735;SDS011;17990;49.548;9.730;2022-08-06T02:56:25;1.53;;;0.93;;
16735;SDS011;17990;49.548;9.730;2022-08-06T02:58:55;2.13;;;1.10;;
16735;SDS011;17990;49.548;9.730;2022-08-06T03:01:27;2.67;;;1.00;;
16735;SDS011;17990;49.548;9.730;2022-08-06T03:03:57;2.77;;;1.40;;
16735;SDS011;17990;49.548;9.730;2022-08-06T03:06:29;2.23;;;1.20;;
16735;SDS011;17990;49.548;9.730;2022-08-06T03:08:59;2.00;;;1.10;;
16735;SDS011;17990;49.548;9.730;2022-08-06T03:11:29;2.47;;;1.03;;
16735;SDS011;17990;49.548;9.730;2022-08-06T03:14:01;2.80;;;1.20;;
16735;SDS011;17990;49.548;9.730;2022-08-06T03:16:31;4.80;;;1.30;;
16735;SDS011;17990;49.548;9.730;2022-08-06T03:19:02;2.07;;;1.20;;
16735;SDS011;17990;49.548;9.730;2022-08-06T03:21:30;2.80;;;1.30;;
16735;SDS011;17990;49.548;9.730;2022-08-06T03:23:58;1.97;;;1.20;;
16735;SDS011;17990;49.548;9.730;2022-08-06T03:26:28;4.13;;;1.90;;
16735;SDS011;17990;49.548;9.730;2022-08-06T03:28:56;2.33;;;1.30;;
16735;SDS011;17990;49.548;9.730;2022-08-06T03:31:27;2.70;;;1.10;;
16735;SDS011;17990;49.548;9.730;2022-08-06T03:33:55;1.87;;;1.20;;
16735;SDS011;17990;49.548;9.730;2022-08-06T03:36:23;2.97;;;1.30;;
16735;SDS011;17990;49.548;9.730;2022-08-06T03:38:53;3.33;;;1.40;;
16735;SDS011;17990;49.548;9.730;2022-08-06T03:41:23;3.00;;;1.30;;
16735;SDS011;17990;49.548;9.730;2022-08-06T03:43:51;1.53;;;1.00;;
16735;SDS011;17990;49.548;9.730;2022-08-06T03:46:21;1.60;;;1.13;;
16735;SDS011;17990;49.548;9.730;2022-08-06T03:48:53;5.07;;;1.60;;
16735;SDS011;17990;49.548;9.730;2022-08-06T03:51:23;4.47;;;1.40;;
16735;SDS011;17990;49.548;9.730;2022-08-06T03:53:53;3.07;;;1.30;;
16735;SDS011;17990;49.548;9.730;2022-08-06T03:56:24;3.37;;;1.37;;
16735;SDS011;17990;49.548;9.730;2022-08-06T03:58:54;2.43;;;1.40;;
16735;SDS011;17990;49.548;9.730;2022-08-06T04:01:26;3.00;;;1.30;;
16735;SDS011;17990;49.548;9.730;2022-08-06T04:03:55;3.53;;;1.27;;
16735;SDS011;17990;49.548;9.730;2022-08-06T04:06:24;2.47;;;1.53;;
16735;SDS011;17990;49.548;9.730;2022-08-06T04:08:52;3.00;;;1.60;;
16735;SDS011;17990;49.548;9.730;2022-08-06T04:11:19;3.23;;;1.60;;
16735;SDS011;17990;49.548;9.730;2022-08-06T04:13:48;2.77;;;1.40;;
16735;SDS011;17990;49.548;9.730;2022-08-06T04:16:15;2.00;;;1.37;;
16735;SDS011;17990;49.548;9.730;2022-08-06T04:18:44;1.80;;;1.23;;
16735;SDS011;17990;49.548;9.730;2022-08-06T04:21:14;4.13;;;1.37;;
16735;SDS011;17990;49.548;9.730;2022-08-06T04:23:45;1.73;;;1.37;;
16735;SDS011;17990;49.548;9.730;2022-08-06T04:26:13;5.23;;;1.33;;
16735;SDS011;17990;49.548;9.730;2022-08-06T04:28:45;3.63;;;1.30;;
16735;SDS011;17990;49.548;9.730;2022-08-06T04:31:16;5.67;;;1.50;;
16735;SDS011;17990;49.548;9.730;2022-08-06T04:33:45;3.00;;;1.40;;
16735;SDS011;17990;49.548;9.730;2022-08-06T04:36:14;3.60;;;1.30;;
16735;SDS011;17990;49.548;9.730;2022-08-06T04:38:42;2.20;;;1.27;;
16735;SDS011;17990;49.548;9.730;2022-08-06T04:41:09;4.43;;;1.50;;
16735;SDS011;17990;49.548;9.730;2022-08-06T04:43:39;1.83;;;1.17;;
16735;SDS011;17990;49.548;9.730;2022-08-06T04:46:06;2.50;;;1.33;;
16735;SDS011;17990;49.548;9.730;2022-08-06T04:48:34;3.53;;;1.40;;
16735;SDS011;17990;49.548;9.730;2022-08-06T04:51:03;2.90;;;1.40;;
16735;SDS011;17990;49.548;9.730;2022-08-06T04:53:35;3.87;;;1.40;;
16735;SDS011;17990;49.548;9.730;2022-08-06T04:56:03;4.23;;;1.30;;
16735;SDS011;17990;49.548;9.730;2022-08-06T04:58:31;2.70;;;1.80;;
16735;SDS011;17990;49.548;9.730;2022-08-06T05:00:58;3.03;;;1.43;;
16735;SDS011;17990;49.548;9.730;2022-08-06T05:03:26;4.83;;;1.30;;
16735;SDS011;17990;49.548;9.730;2022-08-06T05:05:54;7.20;;;1.70;;
16735;SDS011;17990;49.548;9.730;2022-08-06T05:08:40;3.30;;;1.40;;
16735;SDS011;17990;49.548;9.730;2022-08-06T05:11:12;4.30;;;1.57;;
16735;SDS011;17990;49.548;9.730;2022-08-06T05:13:43;3.70;;;1.57;;
16735;SDS011;17990;49.548;9.730;2022-08-06T05:16:13;3.13;;;1.40;;
16735;SDS011;17990;49.548;9.730;2022-08-06T05:18:43;2.97;;;1.30;;
16735;SDS011;17990;49.548;9.730;2022-08-06T05:21:14;3.57;;;1.53;;
16735;SDS011;17990;49.548;9.730;2022-08-06T05:23:56;5.23;;;1.53;;
16735;SDS011;17990;49.548;9.730;2022-08-06T05:26:23;2.77;;;1.23;;
16735;SDS011;17990;49.548;9.730;2022-08-06T05:28:50;3.30;;;1.90;;
16735;SDS011;17990;49.548;9.730;2022-08-06T05:31:27;2.20;;;1.40;;
16735;SDS011;17990;49.548;9.730;2022-08-06T05:33:55;2.00;;;1.30;;
16735;SDS011;17990;49.548;9.730;2022-08-06T05:36:24;2.20;;;1.10;;
16735;SDS011;17990;49.548;9.730;2022-08-06T05:38:51;2.53;;;1.20;;
16735;SDS011;17990;49.548;9.730;2022-08-06T05:41:18;1.70;;;1.10;;
16735;SDS011;17990;49.548;9.730;2022-08-06T05:43:45;3.87;;;1.20;;
16735;SDS011;17990;49.548;9.730;2022-08-06T05:46:13;5.13;;;1.30;;
16735;SDS011;17990;49.548;9.730;2022-08-06T05:48:45;3.17;;;0.90;;
16735;SDS011;17990;49.548;9.730;2022-08-06T05:51:19;2.07;;;0.80;;
16735;SDS011;17990;49.548;9.730;2022-08-06T05:53:55;2.67;;;1.05;;
16735;SDS011;17990;49.548;9.730;2022-08-06T05:56:31;2.90;;;1.00;;
16735;SDS011;17990;49.548;9.730;2022-08-06T05:59:05;2.00;;;0.90;;
16735;SDS011;17990;49.548;9.730;2022-08-06T06:01:36;3.08;;;0.73;;
16735;SDS011;17990;49.548;9.730;2022-08-06T06:04:04;2.45;;;0.77;;
16735;SDS011;17990;49.548;9.730;2022-08-06T06:06:33;2.88;;;1.00;;
16735;SDS011;17990;49.548;9.730;2022-08-06T06:09:00;2.25;;;0.73;;
16735;SDS011;17990;49.548;9.730;2022-08-06T06:11:27;2.55;;;0.75;;
16735;SDS011;17990;49.548;9.730;2022-08-06T06:13:55;2.60;;;0.68;;
16735;SDS011;17990;49.548;9.730;2022-08-06T06:16:23;2.33;;;0.68;;
16735;SDS011;17990;49.548;9.730;2022-08-06T06:18:57;1.55;;;0.60;;
16735;SDS011;17990;49.548;9.730;2022-08-06T06:21:42;1.83;;;0.60;;
16735;SDS011;17990;49.548;9.730;2022-08-06T06:24:20;3.28;;;0.88;;
16735;SDS011;17990;49.548;9.730;2022-08-06T06:26:54;2.60;;;0.70;;
16735;SDS011;17990;49.548;9.730;2022-08-06T06:29:40;2.40;;;0.70;;
16735;SDS011;17990;49.548;9.730;2022-08-06T06:32:17;2.35;;;0.70;;
16735;SDS011;17990;49.548;9.730;2022-08-06T06:34:58;2.15;;;0.65;;
16735;SDS011;17990;49.548;9.730;2022-08-06T06:37:36;1.75;;;0.70;;
16735;SDS011;17990;49.548;9.730;2022-08-06T06:40:10;1.23;;;0.60;;
16735;SDS011;17990;49.548;9.730;2022-08-06T06:43:11;5.95;;;0.88;;
16735;SDS011;17990;49.548;9.730;2022-08-06T06:45:47;1.33;;;0.60;;
16735;SDS011;17990;49.548;9.730;2022-08-06T06:48:23;2.00;;;0.60;;
16735;SDS011;17990;49.548;9.730;2022-08-06T06:51:01;3.83;;;0.70;;
16735;SDS011;17990;49.548;9.730;2022-08-06T06:53:34;1.10;;;0.60;;
16735;SDS011;17990;49.548;9.730;2022-08-06T06:56:07;1.70;;;0.60;;
16735;SDS011;17990;49.548;9.730;2022-08-06T06:58:37;2.35;;;0.60;;
16735;SDS011;17990;49.548;9.730;2022-08-06T07:01:08;3.03;;;0.63;;
16735;SDS011;17990;49.548;9.730;2022-08-06T07:03:38;3.65;;;0.80;;
16735;SDS011;17990;49.548;9.730;2022-08-06T07:06:06;2.85;;;0.60;;
16735;SDS011;17990;49.548;9.730;2022-08-06T07:08:37;1.05;;;0.50;;
16735;SDS011;17990;49.548;9.730;2022-08-06T07:11:10;1.92;;;0.80;;
16735;SDS011;17990;49.548;9.730;2022-08-06T07:13:40;2.78;;;0.70;;
16735;SDS011;17990;49.548;9.730;2022-08-06T07:16:10;1.88;;;0.73;;
16735;SDS011;17990;49.548;9.730;2022-08-06T07:18:39;3.25;;;0.70;;
16735;SDS011;17990;49.548;9.730;2022-08-06T07:21:08;1.25;;;0.75;;
16735;SDS011;17990;49.548;9.730;2022-08-06T07:23:37;2.88;;;0.80;;
16735;SDS011;17990;49.548;9.730;2022-08-06T07:26:04;2.08;;;0.57;;
16735;SDS011;17990;49.548;9.730;2022-08-06T07:28:32;2.70;;;0.43;;
16735;SDS011;17990;49.548;9.730;2022-08-06T07:31:00;0.75;;;0.50;;
16735;SDS011;17990;49.548;9.730;2022-08-06T07:33:31;3.30;;;0.50;;
16735;SDS011;17990;49.548;9.730;2022-08-06T07:36:00;0.65;;;0.60;;
16735;SDS011;17990;49.548;9.730;2022-08-06T07:38:27;2.05;;;0.68;;
16735;SDS011;17990;49.548;9.730;2022-08-06T07:41:01;0.88;;;0.57;;
16735;SDS011;17990;49.548;9.730;2022-08-06T07:43:31;1.10;;;0.60;;
16735;SDS011;17990;49.548;9.730;2022-08-06T07:46:04;3.03;;;0.57;;
16735;SDS011;17990;49.548;9.730;2022-08-06T07:48:35;2.20;;;0.55;;
16735;SDS011;17990;49.548;9.730;2022-08-06T07:51:06;2.72;;;0.52;;
16735;SDS011;17990;49.548;9.730;2022-08-06T07:53:33;3.42;;;0.70;;
16735;SDS011;17990;49.548;9.730;2022-08-06T07:56:05;3.88;;;0.70;;
16735;SDS011;17990;49.548;9.730;2022-08-06T07:58:33;1.90;;;0.70;;
16735;SDS011;17990;49.548;9.730;2022-08-06T08:01:01;1.23;;;0.63;;
16735;SDS011;17990;49.548;9.730;2022-08-06T08:03:29;1.73;;;0.50;;
16735;SDS011;17990;49.548;9.730;2022-08-06T08:06:16;2.60;;;0.50;;
16735;SDS011;17990;49.548;9.730;2022-08-06T08:08:51;1.85;;;0.60;;
16735;SDS011;17990;49.548;9.730;2022-08-06T08:11:22;2.30;;;0.57;;
16735;SDS011;17990;49.548;9.730;2022-08-06T08:13:52;1.85;;;0.50;;
16735;SDS011;17990;49.548;9.730;2022-08-06T08:16:21;1.30;;;0.70;;
16735;SDS011;17990;49.548;9.730;2022-08-06T08:18:48;2.53;;;0.70;;
16735;SDS011;17990;49.548;9.730;2022-08-06T08:21:15;1.55;;;0.60;;
16735;SDS011;17990;49.548;9.730;2022-08-06T08:23:43;1.50;;;0.50;;
16735;SDS011;17990;49.548;9.730;2022-08-06T08:26:12;3.90;;;0.70;;
16735;SDS011;17990;49.548;9.730;2022-08-06T08:28:41;3.60;;;0.55;;
16735;SDS011;17990;49.548;9.730;2022-08-06T08:31:08;2.17;;;0.70;;
16735;SDS011;17990;49.548;9.730;2022-08-06T08:33:38;1.17;;;0.60;;
16735;SDS011;17990;49.548;9.730;2022-08-06T08:36:05;2.30;;;0.63;;
16735;SDS011;17990;49.548;9.730;2022-08-06T08:38:34;2.58;;;0.70;;
16735;SDS011;17990;49.548;9.730;2022-08-06T08:41:03;2.63;;;0.70;;
16735;SDS011;17990;49.548;9.730;2022-08-06T08:43:36;4.07;;;0.70;;
16735;SDS011;17990;49.548;9.730;2022-08-06T08:46:08;1.98;;;0.57;;
16735;SDS011;17990;49.548;9.730;2022-08-06T08:48:36;2.90;;;0.60;;
16735;SDS011;17990;49.548;9.730;2022-08-06T08:51:03;5.32;;;0.70;;
16735;SDS011;17990;49.548;9.730;2022-08-06T08:53:34;1.58;;;0.50;;
16735;SDS011;17990;49.548;9.730;2022-08-06T08:56:04;1.80;;;0.60;;
16735;SDS011;17990;49.548;9.730;2022-08-06T08:58:32;2.05;;;0.55;;
16735;SDS011;17990;49.548;9.730;2022-08-06T09:01:02;4.05;;;0.80;;
16735;SDS011;17990;49.548;9.730;2022-08-06T09:03:34;1.88;;;0.50;;
16735;SDS011;17990;49.548;9.730;2022-08-06T09:06:04;4.00;;;0.70;;
16735;SDS011;17990;49.548;9.730;2022-08-06T09:08:32;1.50;;;0.57;;
16735;SDS011;17990;49.548;9.730;2022-08-06T09:11:01;1.20;;;0.50;;
16735;SDS011;17990;49.548;9.730;2022-08-06T09:13:29;1.17;;;0.55;;
16735;SDS011;17990;49.548;9.730;2022-08-06T09:15:57;1.95;;;0.60;;
16735;SDS011;17990;49.548;9.730;2022-08-06T09:18:24;1.42;;;0.50;;
16735;SDS011;17990;49.548;9.730;2022-08-06T09:20:53;0.90;;;0.43;;
16735;SDS011;17990;49.548;9.730;2022-08-06T09:23:21;2.25;;;0.70;;
16735;SDS011;17990;49.548;9.730;2022-08-06T09:25:48;1.88;;;0.70;;
16735;SDS011;17990;49.548;9.730;2022-08-06T09:28:26;1.42;;;0.57;;
16735;SDS011;17990;49.548;9.730;2022-08-06T09:30:57;1.95;;;0.60;;
16735;SDS011;17990;49.548;9.730;2022-08-06T09:33:27;1.88;;;0.70;;
16735;SDS011;17990;49.548;9.730;2022-08-06T09:35:59;1.10;;;0.50;;
16735;SDS011;17990;49.548;9.730;2022-08-06T09:38:27;1.60;;;0.60;;
16735;SDS011;17990;49.548;9.730;2022-08-06T09:41:02;1.35;;;0.70;;
16735;SDS011;17990;49.548;9.730;2022-08-06T09:43:31;2.63;;;0.40;;
16735;SDS011;17990;49.548;9.730;2022-08-06T09:45:59;3.58;;;0.70;;
16735;SDS011;17990;49.548;9.730;2022-08-06T09:48:26;2.22;;;0.85;;
16735;SDS011;17990;49.548;9.730;2022-08-06T09:50:53;3.00;;;0.77;;
16735;SDS011;17990;49.548;9.730;2022-08-06T09:53:21;4.43;;;0.70;;
16735;SDS011;17990;49.548;9.730;2022-08-06T09:55:49;0.90;;;0.50;;
16735;SDS011;17990;49.548;9.730;2022-08-06T09:58:26;3.38;;;0.60;;
16735;SDS011;17990;49.548;9.730;2022-08-06T10:00:55;3.53;;;0.77;;
16735;SDS011;17990;49.548;9.730;2022-08-06T10:03:22;1.98;;;0.70;;
16735;SDS011;17990;49.548;9.730;2022-08-06T10:06:02;3.50;;;1.02;;
16735;SDS011;17990;49.548;9.730;2022-08-06T10:08:33;0.75;;;0.40;;
16735;SDS011;17990;49.548;9.730;2022-08-06T10:11:00;2.60;;;0.65;;
16735;SDS011;17990;49.548;9.730;2022-08-06T10:13:29;2.53;;;0.60;;
16735;SDS011;17990;49.548;9.730;2022-08-06T10:15:58;3.53;;;0.50;;
16735;SDS011;17990;49.548;9.730;2022-08-06T10:18:40;0.82;;;0.50;;
16735;SDS011;17990;49.548;9.730;2022-08-06T10:21:09;1.45;;;0.70;;
16735;SDS011;17990;49.548;9.730;2022-08-06T10:23:43;2.78;;;0.57;;
16735;SDS011;17990;49.548;9.730;2022-08-06T10:26:13;3.30;;;0.70;;
16735;SDS011;17990;49.548;9.730;2022-08-06T10:28:44;1.67;;;0.50;;
16735;SDS011;17990;49.548;9.730;2022-08-06T10:31:15;1.50;;;0.60;;
16735;SDS011;17990;49.548;9.730;2022-08-06T10:33:45;1.58;;;0.50;;
16735;SDS011;17990;49.548;9.730;2022-08-06T10:36:18;2.85;;;0.40;;
16735;SDS011;17990;49.548;9.730;2022-08-06T10:38:52;4.28;;;0.60;;
16735;SDS011;17990;49.548;9.730;2022-08-06T10:41:21;1.55;;;0.52;;
16735;SDS011;17990;49.548;9.730;2022-08-06T10:43:49;1.55;;;0.50;;
16735;SDS011;17990;49.548;9.730;2022-08-06T10:46:19;10.30;;;0.82;;
16735;SDS011;17990;49.548;9.730;2022-08-06T10:48:47;1.70;;;0.70;;
16735;SDS011;17990;49.548;9.730;2022-08-06T10:51:14;1.55;;;0.47;;
16735;SDS011;17990;49.548;9.730;2022-08-06T10:53:42;0.80;;;0.30;;
16735;SDS011;17990;49.548;9.730;2022-08-06T10:56:13;3.30;;;0.60;;
16735;SDS011;17990;49.548;9.730;2022-08-06T10:58:42;2.85;;;0.40;;
16735;SDS011;17990;49.548;9.730;2022-08-06T11:01:10;4.03;;;0.90;;
16735;SDS011;17990;49.548;9.730;2022-08-06T11:03:50;1.58;;;0.43;;
16735;SDS011;17990;49.548;9.730;2022-08-06T11:06:36;2.75;;;0.73;;
16735;SDS011;17990;49.548;9.730;2022-08-06T11:09:33;1.60;;;0.40;;
16735;SDS011;17990;49.548;9.730;2022-08-06T11:12:26;2.35;;;0.57;;
16735;SDS011;17990;49.548;9.730;2022-08-06T11:15:08;2.42;;;0.40;;
16735;SDS011;17990;49.548;9.730;2022-08-06T11:17:42;2.55;;;0.55;;
16735;SDS011;17990;49.548;9.730;2022-08-06T11:23:21;3.53;;;0.52;;
16735;SDS011;17990;49.548;9.730;2022-08-06T11:25:52;1.17;;;0.40;;
16735;SDS011;17990;49.548;9.730;2022-08-06T11:31:30;2.38;;;0.30;;
16735;SDS011;17990;49.548;9.730;2022-08-06T11:34:04;2.13;;;0.65;;
16735;SDS011;17990;49.548;9.730;2022-08-06T11:36:48;1.15;;;0.40;;
16735;SDS011;17990;49.548;9.730;2022-08-06T11:39:20;2.75;;;0.50;;
16735;SDS011;17990;49.548;9.730;2022-08-06T11:41:56;1.48;;;0.50;;
16735;SDS011;17990;49.548;9.730;2022-08-06T11:44:30;3.53;;;0.50;;
16735;SDS011;17990;49.548;9.730;2022-08-06T11:47:10;1.30;;;0.40;;
16735;SDS011;17990;49.548;9.730;2022-08-06T11:49:42;2.25;;;0.50;;
16735;SDS011;17990;49.548;9.730;2022-08-06T11:52:38;2.90;;;0.60;;
16735;SDS011;17990;49.548;9.730;2022-08-06T11:55:07;3.22;;;0.50;;
16735;SDS011;17990;49.548;9.730;2022-08-06T11:57:37;1.35;;;0.47;;
16735;SDS011;17990;49.548;9.730;2022-08-06T12:00:17;3.05;;;0.63;;
16735;SDS011;17990;49.548;9.730;2022-08-06T12:02:53;2.97;;;0.57;;
16735;SDS011;17990;49.548;9.730;2022-08-06T12:05:34;4.63;;;0.50;;
16735;SDS011;17990;49.548;9.730;2022-08-06T12:08:20;0.65;;;0.38;;
16735;SDS011;17990;49.548;9.730;2022-08-06T12:14:00;2.47;;;0.68;;
16735;SDS011;17990;49.548;9.730;2022-08-06T12:16:36;2.13;;;0.70;;
16735;SDS011;17990;49.548;9.730;2022-08-06T12:19:10;2.08;;;0.60;;
16735;SDS011;17990;49.548;9.730;2022-08-06T12:21:40;2.67;;;0.50;;
16735;SDS011;17990;49.548;9.730;2022-08-06T12:24:09;1.25;;;0.40;;
16735;SDS011;17990;49.548;9.730;2022-08-06T12:26:37;1.23;;;0.40;;
16735;SDS011;17990;49.548;9.730;2022-08-06T12:29:06;2.83;;;0.60;;
16735;SDS011;17990;49.548;9.730;2022-08-06T12:31:36;1.48;;;0.50;;
16735;SDS011;17990;49.548;9.730;2022-08-06T12:34:05;1.95;;;0.70;;
16735;SDS011;17990;49.548;9.730;2022-08-06T12:36:33;1.63;;;0.40;;
16735;SDS011;17990;49.548;9.730;2022-08-06T12:39:03;2.20;;;0.30;;
16735;SDS011;17990;49.548;9.730;2022-08-06T12:41:37;0.95;;;0.30;;
16735;SDS011;17990;49.548;9.730;2022-08-06T12:44:09;1.02;;;0.40;;
16735;SDS011;17990;49.548;9.730;2022-08-06T12:46:39;4.88;;;0.65;;
16735;SDS011;17990;49.548;9.730;2022-08-06T12:49:06;1.52;;;0.50;;
16735;SDS011;17990;49.548;9.730;2022-08-06T12:51:34;1.58;;;0.60;;
16735;SDS011;17990;49.548;9.730;2022-08-06T12:54:03;1.58;;;0.45;;
16735;SDS011;17990;49.548;9.730;2022-08-06T12:56:35;2.83;;;0.52;;
16735;SDS011;17990;49.548;9.730;2022-08-06T12:59:06;2.65;;;0.60;;
16735;SDS011;17990;49.548;9.730;2022-08-06T13:01:36;1.70;;;0.50;;
16735;SDS011;17990;49.548;9.730;2022-08-06T13:04:06;0.73;;;0.30;;
16735;SDS011;17990;49.548;9.730;2022-08-06T13:06:38;2.20;;;0.45;;
16735;SDS011;17990;49.548;9.730;2022-08-06T13:09:06;2.97;;;0.47;;
16735;SDS011;17990;49.548;9.730;2022-08-06T13:11:33;1.25;;;0.40;;
16735;SDS011;17990;49.548;9.730;2022-08-06T13:14:11;3.13;;;0.40;;
16735;SDS011;17990;49.548;9.730;2022-08-06T13:16:41;1.67;;;0.30;;
16735;SDS011;17990;49.548;9.730;2022-08-06T13:19:11;1.40;;;0.35;;
16735;SDS011;17990;49.548;9.730;2022-08-06T13:21:40;1.20;;;0.45;;
16735;SDS011;17990;49.548;9.730;2022-08-06T13:24:09;2.78;;;0.50;;
16735;SDS011;17990;49.548;9.730;2022-08-06T13:26:48;1.00;;;0.40;;
16735;SDS011;17990;49.548;9.730;2022-08-06T13:29:18;0.40;;;0.32;;
16735;SDS011;17990;49.548;9.730;2022-08-06T13:31:57;0.70;;;0.30;;
16735;SDS011;17990;49.548;9.730;2022-08-06T13:34:27;0.60;;;0.30;;
16735;SDS011;17990;49.548;9.730;2022-08-06T13:36:55;0.73;;;0.40;;
16735;SDS011;17990;49.548;9.730;2022-08-06T13:39:25;1.45;;;0.30;;
16735;SDS011;17990;49.548;9.730;2022-08-06T13:42:02;0.70;;;0.40;;
16735;SDS011;17990;49.548;9.730;2022-08-06T13:44:33;2.47;;;0.47;;
16735;SDS011;17990;49.548;9.730;2022-08-06T13:47:04;3.58;;;0.50;;
16735;SDS011;17990;49.548;9.730;2022-08-06T13:49:32;1.73;;;0.40;;
16735;SDS011;17990;49.548;9.730;2022-08-06T13:52:00;0.70;;;0.40;;
16735;SDS011;17990;49.548;9.730;2022-08-06T13:54:28;0.60;;;0.30;;
16735;SDS011;17990;49.548;9.730;2022-08-06T13:56:56;1.10;;;0.50;;
16735;SDS011;17990;49.548;9.730;2022-08-06T13:59:24;1.80;;;0.50;;
16735;SDS011;17990;49.548;9.730;2022-08-06T14:01:53;0.40;;;0.32;;
16735;SDS011;17990;49.548;9.730;2022-08-06T14:04:24;0.93;;;0.38;;
16735;SDS011;17990;49.548;9.730;2022-08-06T14:06:53;0.98;;;0.52;;
16735;SDS011;17990;49.548;9.730;2022-08-06T14:09:21;1.10;;;0.40;;
16735;SDS011;17990;49.548;9.730;2022-08-06T14:11:51;1.13;;;0.40;;
16735;SDS011;17990;49.548;9.730;2022-08-06T14:14:21;1.58;;;0.40;;
16735;SDS011;17990;49.548;9.730;2022-08-06T14:16:49;0.95;;;0.40;;
16735;SDS011;17990;49.548;9.730;2022-08-06T14:19:17;0.93;;;0.40;;
16735;SDS011;17990;49.548;9.730;2022-08-06T14:21:46;1.38;;;0.40;;
16735;SDS011;17990;49.548;9.730;2022-08-06T14:24:12;1.75;;;0.47;;
16735;SDS011;17990;49.548;9.730;2022-08-06T14:26:39;0.80;;;0.35;;
16735;SDS011;17990;49.548;9.730;2022-08-06T14:29:06;2.05;;;0.40;;
16735;SDS011;17990;49.548;9.730;2022-08-06T14:31:33;0.95;;;0.40;;
16735;SDS011;17990;49.548;9.730;2022-08-06T14:34:00;1.02;;;0.50;;
16735;SDS011;17990;49.548;9.730;2022-08-06T14:36:28;1.40;;;0.30;;
16735;SDS011;17990;49.548;9.730;2022-08-06T14:38:56;1.17;;;0.50;;
16735;SDS011;17990;49.548;9.730;2022-08-06T14:41:24;3.47;;;0.50;;
16735;SDS011;17990;49.548;9.730;2022-08-06T14:44:09;0.70;;;0.43;;
16735;SDS011;17990;49.548;9.730;2022-08-06T14:46:54;0.68;;;0.40;;
16735;SDS011;17990;49.548;9.730;2022-08-06T14:49:22;1.17;;;0.43;;
16735;SDS011;17990;49.548;9.730;2022-08-06T14:51:49;3.30;;;0.50;;
16735;SDS011;17990;49.548;9.730;2022-08-06T14:54:17;1.98;;;0.40;;
16735;SDS011;17990;49.548;9.730;2022-08-06T14:56:45;0.98;;;0.52;;
16735;SDS011;17990;49.548;9.730;2022-08-06T14:59:12;2.22;;;0.40;;
16735;SDS011;17990;49.548;9.730;2022-08-06T15:01:40;3.90;;;0.43;;
16735;SDS011;17990;49.548;9.730;2022-08-06T15:04:07;0.70;;;0.40;;
16735;SDS011;17990;49.548;9.730;2022-08-06T15:06:34;0.85;;;0.50;;
16735;SDS011;17990;49.548;9.730;2022-08-06T15:09:01;1.85;;;0.40;;
16735;SDS011;17990;49.548;9.730;2022-08-06T15:11:29;6.57;;;0.50;;
16735;SDS011;17990;49.548;9.730;2022-08-06T15:13:56;0.52;;;0.20;;
16735;SDS011;17990;49.548;9.730;2022-08-06T15:16:23;1.00;;;0.47;;
16735;SDS011;17990;49.548;9.730;2022-08-06T15:18:51;2.72;;;0.40;;
16735;SDS011;17990;49.548;9.730;2022-08-06T15:21:18;0.65;;;0.40;;